Time;durP1;ratioP1;P1;durP2;ratioP2;P2;SDS_P1;SDS_P2;PMS_P1;PMS_P2;Temp;Humidity;BMP_temperature;BMP_pressure;BME280_temperature;BME280_humidity;BME280_pressure;Samples;Min_cycle;Max_cycle;Signal;HPM_P1;HPM_P2
2023/12/02 00:01:47;;;;;;;27.52;5.50;;;18.60;96.70;;;;;;4838391;29;20114;-60
2023/12/02 00:04:16;;;;;;;36.88;6.90;;;18.60;96.70;;;;;;4851212;29;20054;-60
2023/12/02 00:06:44;;;;;;;31.00;5.57;;;18.60;96.70;;;;;;4839007;29;20055;-61
2023/12/02 00:09:14;;;;;;;29.33;5.70;;;18.60;96.70;;;;;;4841590;29;20144;-60
2023/12/02 00:11:42;;;;;;;32.00;6.32;;;18.60;96.70;;;;;;4842891;29;20058;-60
2023/12/02 00:14:13;;;;;;;40.22;5.72;;;18.60;96.70;;;;;;4840011;29;20041;-60
2023/12/02 00:16:41;;;;;;;28.02;5.57;;;18.60;96.70;;;;;;4860747;29;20125;-60
2023/12/02 00:19:11;;;;;;;26.80;5.60;;;18.50;96.70;;;;;;4875695;29;20053;-60
2023/12/02 00:21:40;;;;;;;36.38;6.03;;;18.60;96.70;;;;;;4843171;29;20054;-60
2023/12/02 00:24:09;;;;;;;34.45;6.90;;;18.60;96.70;;;;;;4856972;29;20414;-60
2023/12/02 00:26:38;;;;;;;33.60;6.05;;;18.60;96.70;;;;;;4845192;29;20417;-60
2023/12/02 00:29:06;;;;;;;31.92;6.53;;;18.60;96.70;;;;;;4826213;29;20140;-60
2023/12/02 00:31:35;;;;;;;29.20;6.55;;;18.60;96.70;;;;;;4856589;29;20049;-60
2023/12/02 00:34:03;;;;;;;34.45;6.65;;;18.60;96.70;;;;;;4840610;29;20057;-60
2023/12/02 00:36:34;;;;;;;38.25;6.15;;;18.60;96.70;;;;;;4857724;29;20390;-60
2023/12/02 00:39:02;;;;;;;34.00;5.97;;;18.60;96.70;;;;;;4842012;29;20076;-60
2023/12/02 00:41:31;;;;;;;27.55;5.78;;;18.70;96.70;;;;;;4842071;29;20405;-60
2023/12/02 00:43:59;;;;;;;32.90;6.35;;;18.60;96.70;;;;;;4857458;29;20068;-60
2023/12/02 00:46:28;;;;;;;35.20;6.90;;;18.50;96.70;;;;;;4843068;29;20063;-60
2023/12/02 00:48:56;;;;;;;33.55;7.22;;;18.50;96.70;;;;;;4852050;29;20429;-60
2023/12/02 00:51:24;;;;;;;28.98;6.50;;;18.50;96.70;;;;;;4842263;29;20140;-60
2023/12/02 00:53:56;;;;;;;37.25;6.43;;;18.40;96.70;;;;;;4857705;29;20523;-60
2023/12/02 00:56:24;;;;;;;28.88;6.40;;;18.40;96.70;;;;;;4841688;29;20512;-60
2023/12/02 00:58:56;;;;;;;34.38;6.63;;;18.30;96.70;;;;;;4842330;29;20050;-60
2023/12/02 01:01:24;;;;;;;28.67;5.53;;;18.30;96.70;;;;;;4838419;29;20093;-60
2023/12/02 01:03:56;;;;;;;39.28;7.30;;;18.30;96.70;;;;;;4841788;29;20063;-60
2023/12/02 01:06:24;;;;;;;36.50;6.45;;;18.20;96.70;;;;;;4850599;29;20053;-60
2023/12/02 01:08:55;;;;;;;28.38;5.88;;;18.20;96.70;;;;;;4857488;29;20053;-60
2023/12/02 01:11:25;;;;;;;29.48;6.38;;;18.20;96.70;;;;;;4845364;29;20065;-60
2023/12/02 01:13:54;;;;;;;34.70;7.15;;;18.10;96.70;;;;;;4841912;29;20064;-60
2023/12/02 01:16:22;;;;;;;33.33;6.75;;;18.10;96.70;;;;;;4827771;29;20049;-60
2023/12/02 01:18:51;;;;;;;29.88;5.55;;;17.90;96.70;;;;;;4846167;29;20058;-60
2023/12/02 01:21:20;;;;;;;35.20;5.93;;;18.00;96.70;;;;;;4834317;29;20141;-60
2023/12/02 01:23:48;;;;;;;30.33;5.78;;;17.90;96.70;;;;;;4874851;29;20065;-60
2023/12/02 01:26:18;;;;;;;35.90;5.63;;;17.80;96.70;;;;;;4860274;29;20054;-60
2023/12/02 01:28:47;;;;;;;33.65;5.88;;;17.80;96.70;;;;;;4838819;29;20102;-60
2023/12/02 01:31:15;;;;;;;32.85;6.63;;;17.80;96.70;;;;;;4825941;29;20046;-60
2023/12/02 01:33:44;;;;;;;32.65;6.15;;;17.70;96.70;;;;;;4860985;29;20081;-60
2023/12/02 01:36:13;;;;;;;39.85;6.55;;;17.60;96.70;;;;;;4857916;29;20045;-60
2023/12/02 01:38:42;;;;;;;29.33;5.75;;;17.50;96.70;;;;;;4844928;29;20461;-60
2023/12/02 01:41:11;;;;;;;32.50;5.93;;;17.50;96.70;;;;;;4860151;29;20099;-60
2023/12/02 01:43:41;;;;;;;36.33;6.53;;;17.40;96.70;;;;;;4857591;29;20057;-60
2023/12/02 01:46:15;;;;;;;38.00;7.53;;;17.20;96.70;;;;;;4851554;29;20145;-60
2023/12/02 01:48:45;;;;;;;30.95;5.63;;;17.20;96.70;;;;;;4861278;29;20064;-60
2023/12/02 01:51:13;;;;;;;28.65;5.45;;;17.10;96.70;;;;;;4845138;29;20136;-60
2023/12/02 01:53:42;;;;;;;31.65;5.97;;;17.10;96.70;;;;;;4840672;29;20061;-60
2023/12/02 01:56:14;;;;;;;31.23;5.30;;;17.10;96.70;;;;;;4840959;29;20406;-60
2023/12/02 01:58:47;;;;;;;24.30;5.28;;;17.10;96.70;;;;;;4845650;29;20069;-60
2023/12/02 02:01:17;;;;;;;25.33;5.28;;;17.00;96.70;;;;;;4842478;29;20049;-60
2023/12/02 02:03:48;;;;;;;24.75;6.03;;;17.00;96.70;;;;;;4859851;29;20094;-60
2023/12/02 02:06:19;;;;;;;22.60;6.00;;;17.00;96.70;;;;;;4860216;29;20400;-60
2023/12/02 02:08:47;;;;;;;26.52;5.47;;;17.00;96.70;;;;;;4844451;29;20054;-60
2023/12/02 02:11:15;;;;;;;32.67;6.57;;;17.00;96.70;;;;;;4851569;29;20509;-60
2023/12/02 02:13:45;;;;;;;24.77;5.72;;;17.00;96.70;;;;;;4840366;29;20180;-60
2023/12/02 02:16:16;;;;;;;31.55;6.97;;;17.00;96.70;;;;;;4839295;29;20060;-60
2023/12/02 02:18:44;;;;;;;32.60;6.03;;;17.00;96.70;;;;;;4832767;29;20053;-60
2023/12/02 02:21:19;;;;;;;29.27;7.53;;;17.00;96.70;;;;;;4844124;29;20097;-60
2023/12/02 02:23:48;;;;;;;32.47;6.63;;;17.00;96.70;;;;;;4858941;29;20050;-60
2023/12/02 02:26:16;;;;;;;29.80;6.10;;;16.90;96.70;;;;;;4858491;29;20075;-60
2023/12/02 02:28:44;;;;;;;32.08;6.82;;;16.80;96.70;;;;;;4842265;29;20056;-60
2023/12/02 02:31:14;;;;;;;30.13;5.95;;;16.70;96.70;;;;;;4856653;29;20132;-60
2023/12/02 02:33:42;;;;;;;25.85;5.40;;;16.60;96.70;;;;;;4837419;29;20137;-60
2023/12/02 02:36:12;;;;;;;33.10;6.95;;;16.60;96.70;;;;;;4858213;29;20153;-60
2023/12/02 02:38:43;;;;;;;31.95;8.13;;;16.50;96.70;;;;;;4856068;29;20455;-60
2023/12/02 02:41:13;;;;;;;31.70;7.22;;;16.50;96.70;;;;;;4854588;29;20073;-60
2023/12/02 02:46:42;;;;;;;24.38;6.03;;;16.50;96.70;;;;;;4867003;29;20084;-59
2023/12/02 02:49:10;;;;;;;32.72;5.88;;;16.50;96.70;;;;;;4830549;29;20074;-59
2023/12/02 02:51:39;;;;;;;29.08;6.03;;;16.50;96.70;;;;;;4833501;29;20058;-59
2023/12/02 02:54:10;;;;;;;25.60;6.00;;;16.50;96.70;;;;;;4814108;29;20385;-59
2023/12/02 02:56:40;;;;;;;21.80;5.15;;;16.50;96.70;;;;;;4841152;29;20603;-59
2023/12/02 02:59:08;;;;;;;31.30;5.90;;;16.50;96.70;;;;;;4831339;29;20065;-59
2023/12/02 03:01:38;;;;;;;22.25;5.13;;;16.50;96.70;;;;;;4844061;29;20405;-59
2023/12/02 03:04:08;;;;;;;28.50;5.53;;;16.50;96.70;;;;;;4844906;29;20052;-59
2023/12/02 03:06:37;;;;;;;23.40;5.20;;;16.40;96.70;;;;;;4813538;29;20057;-59
2023/12/02 03:09:11;;;;;;;21.30;4.70;;;16.40;96.70;;;;;;4843898;29;20417;-59
2023/12/02 03:11:41;;;;;;;25.52;4.57;;;16.40;96.70;;;;;;4824805;29;20058;-60
2023/12/02 03:14:10;;;;;;;22.02;4.60;;;16.40;96.70;;;;;;4839940;29;20580;-60
2023/12/02 03:16:39;;;;;;;18.27;4.10;;;16.40;96.70;;;;;;4823931;29;20115;-59
2023/12/02 03:19:07;;;;;;;18.88;4.43;;;16.30;96.70;;;;;;4825497;29;20061;-59
2023/12/02 03:21:36;;;;;;;14.68;4.28;;;16.30;96.70;;;;;;4840405;29;20054;-60
2023/12/02 03:24:06;;;;;;;18.20;3.40;;;16.20;96.70;;;;;;4842593;29;20079;-59
2023/12/02 03:26:38;;;;;;;15.93;4.07;;;16.20;96.70;;;;;;4841937;29;20053;-59
2023/12/02 03:29:07;;;;;;;19.38;3.60;;;16.20;96.70;;;;;;4853998;29;20999;-60
2023/12/02 03:31:36;;;;;;;16.60;3.60;;;16.20;96.70;;;;;;4842936;29;20049;-59
2023/12/02 03:34:06;;;;;;;13.27;3.15;;;16.20;96.70;;;;;;4841120;29;20092;-59
2023/12/02 03:36:35;;;;;;;14.73;3.17;;;16.20;96.70;;;;;;4827703;29;20121;-60
2023/12/02 03:39:04;;;;;;;11.18;3.15;;;16.10;96.70;;;;;;4834695;29;20118;-60
2023/12/02 03:41:32;;;;;;;11.93;3.30;;;16.10;96.70;;;;;;4854488;29;20049;-59
2023/12/02 03:44:03;;;;;;;13.40;3.15;;;16.10;96.70;;;;;;4832677;29;20513;-59
2023/12/02 03:46:34;;;;;;;11.05;3.05;;;16.00;96.70;;;;;;4852508;29;20053;-59
2023/12/02 03:49:03;;;;;;;11.25;2.97;;;15.90;96.70;;;;;;4842949;29;20145;-59
2023/12/02 03:51:31;;;;;;;11.02;2.92;;;15.80;96.70;;;;;;4828066;29;20231;-60
2023/12/02 03:54:00;;;;;;;11.77;2.85;;;15.70;96.70;;;;;;4857378;29;20054;-59
2023/12/02 03:56:29;;;;;;;9.23;2.47;;;15.70;96.70;;;;;;4828265;29;20121;-60
2023/12/02 03:58:57;;;;;;;11.43;2.53;;;15.60;96.70;;;;;;4842177;29;20535;-60
2023/12/02 04:01:28;;;;;;;8.75;2.30;;;15.60;96.70;;;;;;4826769;29;20105;-59
2023/12/02 04:03:57;;;;;;;8.05;1.73;;;15.40;96.70;;;;;;4858129;29;20049;-60
2023/12/02 04:06:26;;;;;;;8.05;1.42;;;15.20;96.70;;;;;;4842602;29;20044;-59
2023/12/02 04:08:54;;;;;;;5.95;1.88;;;15.10;96.70;;;;;;4827635;29;20057;-59
2023/12/02 04:11:26;;;;;;;5.03;1.15;;;14.90;96.70;;;;;;4813003;29;20046;-59
2023/12/02 04:13:54;;;;;;;4.78;0.88;;;14.80;96.70;;;;;;4838859;29;20061;-59
2023/12/02 04:16:23;;;;;;;6.68;1.60;;;14.70;96.70;;;;;;4868253;29;20123;-59
2023/12/02 04:18:53;;;;;;;6.95;1.13;;;14.70;96.70;;;;;;4837116;29;20044;-58
2023/12/02 04:21:23;;;;;;;5.57;1.00;;;14.60;96.70;;;;;;4878552;29;20052;-59
2023/12/02 04:23:53;;;;;;;6.68;1.40;;;14.60;96.70;;;;;;4863453;29;20051;-59
2023/12/02 04:26:21;;;;;;;4.50;1.40;;;14.60;96.70;;;;;;4858341;29;20056;-58
2023/12/02 04:28:51;;;;;;;6.32;1.30;;;14.60;96.70;;;;;;4855077;29;20044;-59
2023/12/02 04:31:19;;;;;;;6.35;1.20;;;14.60;96.70;;;;;;4858428;29;20120;-59
2023/12/02 04:33:48;;;;;;;9.02;1.58;;;14.60;96.70;;;;;;4859534;29;20913;-59
2023/12/02 04:36:18;;;;;;;7.72;1.27;;;14.60;96.70;;;;;;4866429;29;20110;-59
2023/12/02 04:38:48;;;;;;;10.27;1.50;;;14.60;96.70;;;;;;4842258;29;20041;-58
2023/12/02 04:41:17;;;;;;;9.75;1.52;;;14.60;96.70;;;;;;4847084;29;20044;-59
2023/12/02 04:43:47;;;;;;;9.27;1.75;;;14.70;96.70;;;;;;4877304;29;20917;-58
2023/12/02 04:46:17;;;;;;;8.98;1.92;;;14.70;96.70;;;;;;4859164;29;20148;-58
2023/12/02 04:48:46;;;;;;;12.18;1.77;;;14.70;96.70;;;;;;4819561;29;20060;-59
2023/12/02 04:51:15;;;;;;;13.07;1.98;;;14.70;96.70;;;;;;4824088;29;20054;-58
2023/12/02 04:53:46;;;;;;;10.50;1.80;;;14.70;96.70;;;;;;4824177;29;20061;-59
2023/12/02 04:56:14;;;;;;;8.48;1.60;;;14.70;96.70;;;;;;4823686;29;20058;-58
2023/12/02 04:58:45;;;;;;;11.10;2.25;;;14.70;96.70;;;;;;4807450;29;20531;-59
2023/12/02 05:01:14;;;;;;;13.23;2.50;;;14.70;96.70;;;;;;4823876;29;20066;-59
2023/12/02 05:03:43;;;;;;;17.15;2.70;;;14.60;96.70;;;;;;4823680;29;20054;-59
2023/12/02 05:06:17;;;;;;;14.10;2.90;;;14.60;96.70;;;;;;4837525;29;20053;-59
2023/12/02 05:08:47;;;;;;;16.13;2.63;;;14.50;96.70;;;;;;4823887;29;20483;-59
2023/12/02 05:11:18;;;;;;;16.70;2.65;;;14.50;96.70;;;;;;4823855;29;20057;-59
2023/12/02 05:13:47;;;;;;;11.35;2.40;;;14.50;96.70;;;;;;4807246;29;20057;-58
2023/12/02 05:16:17;;;;;;;21.35;3.63;;;14.40;96.70;;;;;;4832714;29;20524;-59
2023/12/02 05:18:46;;;;;;;14.25;2.92;;;14.40;96.70;;;;;;4822930;29;20410;-59
2023/12/02 05:21:15;;;;;;;13.02;2.90;;;14.30;96.70;;;;;;4820364;29;20046;-59
2023/12/02 05:23:44;;;;;;;13.77;2.28;;;14.30;96.70;;;;;;4807962;29;20054;-59
2023/12/02 05:26:14;;;;;;;16.98;2.35;;;14.20;96.70;;;;;;4824011;29;20437;-59
2023/12/02 05:28:43;;;;;;;15.90;2.88;;;14.20;96.70;;;;;;4820401;29;20046;-59
2023/12/02 05:31:12;;;;;;;16.90;2.72;;;14.10;96.70;;;;;;4818806;29;20070;-59
2023/12/02 05:33:41;;;;;;;18.95;3.20;;;14.00;96.70;;;;;;4830070;29;20058;-59
2023/12/02 05:36:11;;;;;;;13.85;2.53;;;14.00;96.70;;;;;;4837400;29;20535;-58
2023/12/02 05:38:39;;;;;;;10.35;2.35;;;14.00;96.70;;;;;;4838354;29;20069;-59
2023/12/02 05:41:08;;;;;;;18.27;2.72;;;13.90;96.70;;;;;;4835731;29;20144;-59
2023/12/02 05:43:38;;;;;;;15.40;3.38;;;13.90;96.70;;;;;;4823580;29;20131;-59
2023/12/02 05:46:13;;;;;;;13.95;2.45;;;13.90;96.70;;;;;;4832653;29;20057;-59
2023/12/02 05:48:42;;;;;;;12.73;2.53;;;13.80;96.70;;;;;;4840605;29;20078;-58
2023/12/02 05:51:12;;;;;;;12.27;3.30;;;13.80;96.70;;;;;;4857044;29;20072;-59
2023/12/02 05:53:41;;;;;;;18.20;2.83;;;13.80;96.70;;;;;;4845506;29;20050;-58
2023/12/02 05:56:11;;;;;;;14.77;3.05;;;13.70;96.70;;;;;;4854443;29;20080;-59
2023/12/02 05:58:42;;;;;;;11.60;2.25;;;13.60;96.70;;;;;;4841564;29;20105;-59
2023/12/02 06:01:11;;;;;;;9.63;1.80;;;13.60;96.70;;;;;;4855250;29;20505;-58
2023/12/02 06:03:40;;;;;;;9.93;1.80;;;13.60;96.70;;;;;;4861842;29;20049;-58
2023/12/02 06:06:10;;;;;;;13.80;1.73;;;13.60;96.70;;;;;;4857985;29;20057;-58
2023/12/02 06:08:40;;;;;;;11.52;2.67;;;13.60;96.70;;;;;;4841147;29;20531;-59
2023/12/02 06:11:12;;;;;;;11.10;2.28;;;13.60;96.70;;;;;;4858271;29;20069;-59
2023/12/02 06:13:45;;;;;;;8.95;1.73;;;13.60;96.70;;;;;;4827433;29;20049;-58
2023/12/02 06:16:16;;;;;;;11.27;1.98;;;13.60;96.70;;;;;;4859880;29;20110;-59
2023/12/02 06:18:45;;;;;;;8.65;1.38;;;13.60;96.70;;;;;;4859175;29;20060;-59
2023/12/02 06:21:14;;;;;;;11.65;2.22;;;13.60;96.70;;;;;;4841018;29;20096;-58
2023/12/02 06:23:43;;;;;;;9.75;2.00;;;13.60;96.70;;;;;;4861036;29;20102;-59
2023/12/02 06:26:13;;;;;;;7.78;1.50;;;13.60;96.70;;;;;;4856862;29;20097;-58
2023/12/02 06:28:49;;;;;;;11.68;1.30;;;13.70;96.70;;;;;;4861451;29;20050;-58
2023/12/02 06:31:18;;;;;;;11.93;1.75;;;13.80;96.70;;;;;;4854453;29;20453;-58
2023/12/02 06:33:47;;;;;;;10.20;2.22;;;13.80;96.70;;;;;;4850062;29;20189;-57
2023/12/02 06:36:17;;;;;;;9.27;1.58;;;13.80;96.70;;;;;;4860671;29;20404;-58
2023/12/02 06:38:47;;;;;;;9.98;1.98;;;13.80;96.70;;;;;;4861169;29;20038;-59
2023/12/02 06:41:15;;;;;;;7.80;1.52;;;13.80;96.70;;;;;;4844937;29;20041;-59
2023/12/02 06:43:50;;;;;;;14.27;2.42;;;13.80;96.70;;;;;;4861130;29;20057;-58
2023/12/02 06:46:23;;;;;;;9.18;1.90;;;13.80;96.70;;;;;;4847846;29;20062;-61
2023/12/02 06:48:52;;;;;;;9.85;2.35;;;13.80;96.70;;;;;;4834469;29;20130;-58
2023/12/02 06:51:23;;;;;;;10.93;2.33;;;13.70;96.70;;;;;;4843103;29;20045;-60
2023/12/02 06:53:54;;;;;;;9.57;1.77;;;13.70;96.70;;;;;;4842489;29;20076;-60
2023/12/02 06:56:26;;;;;;;13.10;2.38;;;13.70;96.70;;;;;;4839570;29;20098;-61
2023/12/02 06:58:57;;;;;;;15.30;1.88;;;13.60;96.70;;;;;;4846143;29;20041;-59
2023/12/02 07:01:27;;;;;;;8.57;1.88;;;13.60;96.70;;;;;;4834858;29;20115;-59
2023/12/02 07:03:58;;;;;;;9.50;1.40;;;13.60;96.70;;;;;;4824001;29;20057;-59
2023/12/02 07:06:27;;;;;;;16.33;2.83;;;13.60;96.70;;;;;;4824727;29;20053;-59
2023/12/02 07:08:57;;;;;;;11.15;1.85;;;13.60;96.70;;;;;;4841922;29;20553;-60
2023/12/02 07:11:27;;;;;;;14.13;2.50;;;13.60;96.70;;;;;;4854898;29;20073;-60
2023/12/02 07:13:58;;;;;;;14.63;2.08;;;13.60;96.70;;;;;;4840655;29;20057;-59
2023/12/02 07:16:27;;;;;;;9.57;1.52;;;13.70;96.70;;;;;;4842682;29;20049;-59
2023/12/02 07:18:56;;;;;;;7.65;1.65;;;13.70;96.70;;;;;;4847642;29;20045;-59
2023/12/02 07:21:25;;;;;;;13.13;1.75;;;13.80;96.70;;;;;;4844718;29;20061;-59
2023/12/02 07:23:54;;;;;;;22.35;3.58;;;13.90;96.70;;;;;;4844765;29;20058;-59
2023/12/02 07:26:23;;;;;;;11.63;1.58;;;14.00;96.70;;;;;;4845226;29;20046;-59
2023/12/02 07:28:51;;;;;;;11.02;1.48;;;14.00;96.70;;;;;;4843867;29;20053;-59
2023/12/02 07:31:23;;;;;;;6.75;0.90;;;14.00;96.70;;;;;;4840800;29;20489;-59
2023/12/02 07:33:52;;;;;;;6.03;1.38;;;14.10;96.70;;;;;;4823495;29;20141;-59
2023/12/02 07:36:23;;;;;;;8.48;1.23;;;14.20;96.70;;;;;;4841001;29;20049;-59
2023/12/02 07:38:51;;;;;;;6.53;1.25;;;14.10;96.70;;;;;;4860044;29;20041;-59
2023/12/02 07:41:21;;;;;;;7.75;1.33;;;14.10;96.70;;;;;;4850639;29;20042;-59
2023/12/02 07:43:50;;;;;;;7.43;1.30;;;14.10;96.70;;;;;;4841300;29;20056;-59
2023/12/02 07:46:19;;;;;;;10.60;2.05;;;14.20;96.70;;;;;;4856996;29;20061;-60
2023/12/02 07:48:50;;;;;;;9.40;1.55;;;14.20;96.70;;;;;;4851222;29;20065;-59
2023/12/02 07:51:21;;;;;;;10.93;2.03;;;14.30;96.70;;;;;;4856228;29;20504;-59
2023/12/02 07:53:51;;;;;;;7.80;1.42;;;14.30;96.70;;;;;;4858802;29;20061;-59
2023/12/02 07:56:19;;;;;;;7.95;1.50;;;14.40;96.70;;;;;;4859913;29;20053;-59
2023/12/02 07:58:48;;;;;;;10.77;1.65;;;14.50;96.70;;;;;;4859259;29;20046;-59
2023/12/02 08:01:17;;;;;;;6.97;1.70;;;14.50;96.70;;;;;;4859348;29;20128;-59
2023/12/02 08:03:49;;;;;;;7.72;1.33;;;14.60;96.70;;;;;;4867890;29;20164;-59
2023/12/02 08:06:19;;;;;;;5.82;1.30;;;14.60;96.70;;;;;;4858442;29;20156;-59
2023/12/02 08:08:49;;;;;;;7.43;1.45;;;14.60;96.70;;;;;;4858707;29;20114;-59
2023/12/02 08:11:18;;;;;;;7.47;1.60;;;14.60;96.70;;;;;;4859472;29;20105;-62
2023/12/02 08:13:49;;;;;;;7.15;1.73;;;14.60;96.70;;;;;;4859219;29;20078;-60
2023/12/02 08:16:21;;;;;;;9.57;1.27;;;14.70;96.70;;;;;;4858409;29;20502;-60
2023/12/02 08:18:52;;;;;;;7.35;1.50;;;14.80;96.70;;;;;;4845231;29;20060;-59
2023/12/02 08:21:21;;;;;;;10.90;1.90;;;14.70;96.70;;;;;;4850323;29;20053;-65
2023/12/02 08:23:51;;;;;;;9.70;2.60;;;14.70;96.70;;;;;;4855597;29;20534;-59
2023/12/02 08:26:21;;;;;;;7.22;1.33;;;14.80;96.70;;;;;;4842633;29;20419;-60
2023/12/02 08:28:51;;;;;;;8.57;1.70;;;14.90;96.70;;;;;;4859106;29;20117;-59
2023/12/02 08:31:20;;;;;;;6.13;1.20;;;14.90;96.70;;;;;;4858904;29;20068;-59
2023/12/02 08:33:51;;;;;;;7.20;1.33;;;14.90;96.70;;;;;;4858223;29;20049;-60
2023/12/02 08:36:20;;;;;;;6.25;1.60;;;14.90;96.70;;;;;;4872762;29;20420;-59
2023/12/02 08:38:50;;;;;;;7.53;2.28;;;15.00;96.70;;;;;;4841693;29;20060;-58
2023/12/02 08:41:19;;;;;;;9.85;1.52;;;15.00;96.70;;;;;;4858286;29;20057;-59
2023/12/02 08:43:48;;;;;;;8.02;1.45;;;15.00;96.70;;;;;;4859223;29;20518;-59
2023/12/02 08:46:18;;;;;;;7.25;1.30;;;15.00;96.70;;;;;;4853514;29;20062;-59
2023/12/02 08:48:47;;;;;;;9.10;1.90;;;15.00;96.70;;;;;;4858423;29;20076;-59
2023/12/02 08:51:17;;;;;;;6.78;1.50;;;15.00;96.70;;;;;;4872545;29;20053;-59
2023/12/02 08:53:48;;;;;;;6.50;1.20;;;15.00;96.70;;;;;;4845785;29;20424;-59
2023/12/02 08:56:17;;;;;;;8.55;1.50;;;14.90;96.70;;;;;;4858290;29;20088;-62
2023/12/02 08:58:47;;;;;;;8.90;2.03;;;14.90;96.70;;;;;;4858377;29;20046;-59
2023/12/02 09:01:16;;;;;;;6.60;1.75;;;14.80;96.70;;;;;;4858022;29;20073;-63
2023/12/02 09:03:46;;;;;;;8.30;2.20;;;14.80;96.70;;;;;;4833758;29;20054;-62
2023/12/02 09:06:17;;;;;;;5.72;1.38;;;14.70;96.70;;;;;;4858803;29;20060;-59
2023/12/02 09:08:47;;;;;;;10.20;2.33;;;14.70;96.70;;;;;;4838969;29;20603;-59
2023/12/02 09:11:16;;;;;;;11.95;2.00;;;14.90;96.70;;;;;;4858472;29;20065;-59
2023/12/02 09:13:47;;;;;;;7.53;1.48;;;15.00;96.70;;;;;;4858275;29;20436;-58
2023/12/02 09:16:20;;;;;;;9.43;1.92;;;15.10;96.70;;;;;;4856634;29;20059;-59
2023/12/02 09:18:49;;;;;;;12.02;2.60;;;15.20;96.70;;;;;;4838542;29;20661;-61
2023/12/02 09:21:42;;;;;;;6.57;1.35;;;15.30;96.70;;;;;;4846702;29;20049;-59
2023/12/02 09:24:35;;;;;;;10.73;2.60;;;15.40;96.70;;;;;;4858411;29;20586;-59
2023/12/02 09:27:05;;;;;;;11.77;2.08;;;15.40;96.70;;;;;;4826368;29;20049;-61
2023/12/02 09:29:36;;;;;;;12.23;2.70;;;15.30;96.70;;;;;;4859535;29;20093;-59
2023/12/02 09:32:36;;;;;;;15.50;2.80;;;15.30;96.70;;;;;;4859060;29;20046;-61
2023/12/02 09:35:07;;;;;;;9.73;1.98;;;15.20;96.70;;;;;;4842877;29;20535;-61
2023/12/02 09:37:58;;;;;;;15.88;2.53;;;15.20;96.70;;;;;;4836787;29;20380;-60
2023/12/02 09:40:43;;;;;;;12.73;3.17;;;15.00;96.70;;;;;;4841026;29;20053;-60
2023/12/02 09:43:26;;;;;;;13.70;2.42;;;15.00;96.70;;;;;;4856494;29;20050;-60
2023/12/02 09:46:10;;;;;;;12.45;2.53;;;14.90;96.70;;;;;;4842072;29;20113;-60
2023/12/02 09:48:49;;;;;;;17.48;2.72;;;14.80;96.70;;;;;;4857708;29;20058;-60
2023/12/02 09:51:30;;;;;;;11.20;2.55;;;14.80;96.70;;;;;;4859703;29;20049;-61
2023/12/02 09:54:09;;;;;;;13.43;2.83;;;14.80;96.70;;;;;;4862121;29;20123;-60
2023/12/02 09:56:41;;;;;;;13.60;2.53;;;14.70;96.70;;;;;;4860303;29;20049;-60
2023/12/02 09:59:15;;;;;;;13.88;3.03;;;14.70;96.70;;;;;;4861467;29;20141;-60
2023/12/02 10:01:49;;;;;;;18.33;4.45;;;14.60;96.70;;;;;;4861316;29;20045;-60
2023/12/02 10:04:26;;;;;;;17.90;3.50;;;14.50;96.70;;;;;;4864725;29;20567;-60
2023/12/02 10:07:00;;;;;;;12.30;3.03;;;14.50;96.70;;;;;;4880663;29;20057;-60
2023/12/02 10:09:53;;;;;;;15.40;2.97;;;14.50;96.70;;;;;;4880952;29;20435;-62
2023/12/02 10:12:40;;;;;;;23.38;5.35;;;14.40;96.70;;;;;;4858868;29;20049;-59
2023/12/02 10:15:11;;;;;;;15.43;3.40;;;14.30;96.70;;;;;;4857684;29;20050;-61
2023/12/02 10:17:56;;;;;;;18.90;3.67;;;13.90;96.70;;;;;;4843601;29;20053;-61
2023/12/02 10:20:28;;;;;;;17.77;3.10;;;13.50;96.70;;;;;;4861817;29;20085;-61
2023/12/02 10:23:01;;;;;;;18.65;4.45;;;13.30;96.70;;;;;;4862144;29;20061;-60
2023/12/02 10:25:41;;;;;;;14.50;3.77;;;13.30;96.70;;;;;;4875263;29;20045;-60
2023/12/02 10:28:19;;;;;;;17.33;4.60;;;13.30;96.70;;;;;;4862481;29;20469;-59
2023/12/02 10:30:57;;;;;;;18.63;3.80;;;13.40;96.70;;;;;;4856098;29;20054;-58
2023/12/02 10:33:38;;;;;;;20.65;3.47;;;13.40;96.70;;;;;;4844617;29;20049;-60
2023/12/02 10:36:10;;;;;;;13.82;3.45;;;13.50;96.70;;;;;;4866018;29;20071;-60
2023/12/02 10:38:51;;;;;;;20.35;3.80;;;13.60;96.70;;;;;;4864399;29;20583;-59
2023/12/02 10:41:41;;;;;;;18.75;3.30;;;13.60;96.70;;;;;;4858828;29;20192;-60
2023/12/02 10:44:10;;;;;;;15.50;3.30;;;13.60;96.70;;;;;;4878769;29;20583;-60
2023/12/02 10:46:42;;;;;;;21.23;3.38;;;13.60;96.70;;;;;;4857049;29;20068;-60
2023/12/02 10:49:15;;;;;;;16.15;3.33;;;13.60;96.70;;;;;;4860924;29;20521;-60
2023/12/02 10:51:47;;;;;;;19.45;3.22;;;13.60;96.70;;;;;;4877859;29;20057;-61
2023/12/02 10:54:41;;;;;;;14.57;3.88;;;13.60;96.70;;;;;;4879770;29;20469;-60
2023/12/02 10:57:12;;;;;;;17.10;3.33;;;13.60;96.70;;;;;;4863331;29;20055;-60
2023/12/02 10:59:49;;;;;;;16.13;3.78;;;13.70;96.70;;;;;;4844762;29;20082;-60
2023/12/02 11:02:26;;;;;;;20.05;3.67;;;13.70;96.70;;;;;;4845045;29;20128;-60
2023/12/02 11:05:17;;;;;;;17.55;3.55;;;13.60;96.70;;;;;;4858707;29;20061;-61
2023/12/02 11:07:51;;;;;;;17.05;3.45;;;13.70;96.70;;;;;;4859245;29;20190;-62
2023/12/02 11:10:31;;;;;;;20.60;3.53;;;13.70;96.70;;;;;;4872926;29;20109;-61
2023/12/02 11:13:12;;;;;;;18.13;4.05;;;13.70;96.70;;;;;;4867439;29;20057;-60
2023/12/02 11:16:07;;;;;;;15.93;3.50;;;13.60;96.70;;;;;;4857373;29;20050;-60
2023/12/02 11:18:45;;;;;;;21.40;3.60;;;13.60;96.70;;;;;;4858231;29;20053;-60
2023/12/02 11:21:30;;;;;;;22.08;4.00;;;13.60;96.70;;;;;;4844628;29;20053;-60
2023/12/02 11:24:07;;;;;;;14.90;3.67;;;13.60;96.70;;;;;;4844127;29;20520;-62
2023/12/02 11:26:46;;;;;;;16.00;3.33;;;13.70;96.70;;;;;;4860777;29;20737;-60
2023/12/02 11:29:38;;;;;;;20.95;4.90;;;13.80;96.70;;;;;;4858774;29;20065;-59
2023/12/02 11:32:41;;;;;;;19.75;4.13;;;13.80;96.70;;;;;;4855196;29;20060;-60
2023/12/02 11:35:15;;;;;;;12.95;2.58;;;13.60;96.70;;;;;;4842198;29;20258;-62
2023/12/02 11:37:59;;;;;;;16.23;2.97;;;13.60;96.70;;;;;;4860749;29;20045;-60
2023/12/02 11:40:50;;;;;;;18.90;3.50;;;13.50;96.70;;;;;;4860212;29;20413;-60
2023/12/02 11:43:30;;;;;;;15.43;3.08;;;13.50;96.70;;;;;;4868945;29;20045;-60
2023/12/02 11:46:06;;;;;;;19.15;3.38;;;13.50;96.70;;;;;;4829160;29;20089;-59
2023/12/02 11:48:42;;;;;;;22.27;3.63;;;13.30;96.70;;;;;;4821663;29;20054;-60
2023/12/02 11:51:22;;;;;;;24.17;3.85;;;13.20;96.70;;;;;;4834435;29;20107;-60
2023/12/02 11:54:09;;;;;;;14.52;3.45;;;13.20;96.70;;;;;;4840733;29;20054;-60
2023/12/02 11:56:49;;;;;;;21.17;3.97;;;13.00;96.70;;;;;;4841958;29;20089;-60
2023/12/02 11:59:19;;;;;;;19.20;3.75;;;12.90;96.70;;;;;;4849221;29;20045;-60
2023/12/02 12:02:02;;;;;;;19.05;3.15;;;12.60;96.70;;;;;;4847967;29;20050;-60
2023/12/02 12:04:54;;;;;;;17.30;4.07;;;12.20;96.70;;;;;;4832747;29;21301;-61
2023/12/02 12:07:40;;;;;;;13.65;2.80;;;12.00;96.70;;;;;;4846713;29;20042;-60
2023/12/02 12:10:22;;;;;;;16.95;3.00;;;11.90;96.70;;;;;;4839423;29;20051;-61
2023/12/02 12:12:56;;;;;;;18.08;3.58;;;11.90;96.70;;;;;;4824321;29;20517;-60
2023/12/02 12:15:27;;;;;;;16.45;3.60;;;12.00;96.70;;;;;;4838758;29;20074;-60
2023/12/02 12:18:17;;;;;;;18.25;3.33;;;12.00;96.70;;;;;;4810226;29;20501;-60
2023/12/02 12:20:55;;;;;;;15.68;3.80;;;12.00;96.70;;;;;;4840086;29;20501;-60
2023/12/02 12:23:28;;;;;;;18.70;3.10;;;12.10;96.70;;;;;;4821598;29;20054;-60
2023/12/02 12:25:59;;;;;;;18.27;3.33;;;12.10;96.70;;;;;;4825438;29;20441;-60
2023/12/02 12:28:31;;;;;;;20.42;3.85;;;12.20;96.70;;;;;;4851275;29;20066;-61
2023/12/02 12:31:00;;;;;;;18.05;3.22;;;12.30;96.70;;;;;;4855375;29;20050;-61
2023/12/02 12:33:31;;;;;;;18.40;3.00;;;12.40;96.70;;;;;;4837463;29;20596;-61
2023/12/02 12:36:00;;;;;;;12.13;2.60;;;12.40;96.70;;;;;;4852128;29;20064;-63
2023/12/02 12:38:29;;;;;;;14.98;2.95;;;12.50;96.70;;;;;;4823317;29;20042;-61
2023/12/02 12:40:57;;;;;;;18.58;3.53;;;12.60;96.70;;;;;;4809113;29;20095;-61
2023/12/02 12:43:27;;;;;;;15.95;3.10;;;12.60;96.70;;;;;;4843434;29;20462;-61
2023/12/02 12:46:04;;;;;;;21.55;3.63;;;12.70;96.70;;;;;;4816940;29;20783;-61
2023/12/02 12:48:35;;;;;;;11.85;3.58;;;12.70;96.70;;;;;;4857485;29;20052;-60
2023/12/02 12:51:07;;;;;;;14.90;3.17;;;12.80;96.70;;;;;;4856912;29;20051;-60
2023/12/02 12:53:40;;;;;;;16.60;4.22;;;12.70;96.70;;;;;;4827614;29;20061;-61
2023/12/02 12:56:11;;;;;;;17.05;4.65;;;12.70;96.70;;;;;;4851031;29;20050;-61
2023/12/02 12:58:54;;;;;;;12.32;3.08;;;12.80;96.70;;;;;;4851104;29;20528;-61
2023/12/02 13:01:28;;;;;;;12.75;2.97;;;12.90;96.70;;;;;;4841840;29;20378;-61
2023/12/02 13:04:07;;;;;;;16.13;3.30;;;12.90;96.70;;;;;;4840359;29;20054;-61
2023/12/02 13:06:46;;;;;;;16.40;2.80;;;13.00;96.70;;;;;;4851122;29;20053;-61